createdAt,value
2017-10-28T01:36:24.077Z,10.68
2017-10-28T01:36:24.643Z,10.70
2017-10-28T01:36:25.245Z,10.71
2017-10-28T01:36:25.843Z,10.70
2017-10-28T01:36:26.442Z,10.71
2017-10-28T01:36:27.041Z,10.77
2017-10-28T01:36:27.642Z,10.70
2017-10-28T01:36:28.241Z,10.77
2017-10-28T01:37:21.722Z,10.68
2017-10-28T01:37:22.297Z,10.71
2017-10-28T01:37:22.895Z,10.77
2017-10-28T01:37:23.495Z,10.78
2017-10-28T01:37:24.095Z,10.77
2017-10-28T01:37:24.696Z,10.73
2017-10-28T01:37:25.294Z,10.71
2017-10-28T01:37:25.900Z,10.70
2017-10-28T01:38:19.374Z,10.71
2017-10-28T01:38:19.948Z,10.76
2017-10-28T01:38:20.547Z,10.74
2017-10-28T01:38:21.148Z,10.74
2017-10-28T01:38:21.751Z,10.77
2017-10-28T01:38:22.347Z,10.77
2017-10-28T01:38:22.947Z,10.71
2017-10-28T01:38:23.548Z,10.81
2017-10-28T01:39:18.050Z,10.76
2017-10-28T01:39:18.624Z,10.86
2017-10-28T01:39:19.224Z,10.78
2017-10-28T01:39:19.824Z,10.74
2017-10-28T01:39:20.424Z,10.76
2017-10-28T01:39:21.023Z,10.73
2017-10-28T01:39:21.624Z,10.81
2017-10-28T01:39:22.239Z,10.84
2017-10-28T01:40:16.724Z,10.71
2017-10-28T01:40:17.300Z,10.76
2017-10-28T01:40:17.899Z,10.74
2017-10-28T01:40:18.499Z,10.74
2017-10-28T01:40:19.099Z,10.77
2017-10-28T01:40:19.699Z,10.77
2017-10-28T01:40:20.302Z,10.74
2017-10-28T01:40:20.899Z,10.77
2017-10-28T01:41:14.378Z,10.71
2017-10-28T01:41:14.954Z,10.78
2017-10-28T01:41:15.553Z,10.78
2017-10-28T01:41:16.153Z,10.81
2017-10-28T01:41:16.752Z,10.73
2017-10-28T01:41:17.353Z,10.76
2017-10-28T01:41:17.952Z,10.84
2017-10-28T01:41:18.553Z,10.77
2017-10-28T01:42:13.060Z,10.71
2017-10-28T01:42:13.630Z,10.77
2017-10-28T01:42:14.230Z,10.83
2017-10-28T01:42:14.828Z,10.71
2017-10-28T01:42:15.435Z,10.83
2017-10-28T01:42:16.028Z,10.76
2017-10-28T01:42:16.627Z,10.78
2017-10-28T01:42:17.227Z,10.74
2017-10-28T01:43:11.729Z,10.73
2017-10-28T01:43:12.309Z,10.73
2017-10-28T01:43:12.904Z,10.78
2017-10-28T01:43:13.502Z,10.83
2017-10-28T01:43:14.103Z,10.80
2017-10-28T01:43:14.705Z,10.71
2017-10-28T01:43:15.305Z,10.71
2017-10-28T01:43:15.901Z,10.83
2017-10-28T01:44:10.407Z,10.80
2017-10-28T01:44:10.979Z,10.81
2017-10-28T01:44:11.579Z,10.71
2017-10-28T01:44:12.178Z,10.83
2017-10-28T01:44:12.778Z,10.80
2017-10-28T01:44:13.379Z,10.77
2017-10-28T01:44:13.977Z,10.81
2017-10-28T01:44:14.577Z,10.86
2017-10-28T01:45:08.061Z,10.84
2017-10-28T01:45:08.633Z,10.81
2017-10-28T01:45:09.235Z,10.84
2017-10-28T01:45:09.833Z,10.84
2017-10-28T01:45:10.433Z,10.89
2017-10-28T01:45:11.032Z,10.77
2017-10-28T01:45:11.632Z,10.89
2017-10-28T01:45:12.233Z,10.83
2017-10-28T01:46:06.734Z,10.88
2017-10-28T01:46:07.306Z,10.86
2017-10-28T01:46:07.907Z,10.88
2017-10-28T01:46:08.507Z,10.84
2017-10-28T01:46:09.106Z,10.89
2017-10-28T01:46:09.706Z,10.84
2017-10-28T01:46:10.307Z,10.89
2017-10-28T01:46:10.905Z,10.86
2017-10-28T01:47:04.385Z,10.86
2017-10-28T01:47:04.961Z,10.86
2017-10-28T01:47:05.561Z,10.92
2017-10-28T01:47:06.161Z,10.99
2017-10-28T01:47:06.760Z,10.88
2017-10-28T01:47:07.374Z,10.94
2017-10-28T01:47:07.959Z,10.99
2017-10-28T01:47:08.559Z,10.95
2017-10-28T01:48:03.062Z,10.89
2017-10-28T01:48:03.635Z,10.89
2017-10-28T01:48:04.237Z,10.96
2017-10-28T01:48:04.837Z,10.89
2017-10-28T01:48:05.435Z,10.89
2017-10-28T01:48:06.035Z,10.94
2017-10-28T01:48:06.636Z,10.89
2017-10-28T01:48:07.235Z,10.95
2017-10-28T01:49:00.713Z,10.95
2017-10-28T01:49:01.287Z,10.95
2017-10-28T01:49:01.895Z,10.96
2017-10-28T01:49:02.488Z,10.89
2017-10-28T01:49:03.087Z,10.91
2017-10-28T01:49:03.687Z,10.94
2017-10-28T01:49:04.287Z,11.03
2017-10-28T01:49:04.887Z,10.94
2017-10-28T01:49:58.365Z,10.92
2017-10-28T01:49:58.945Z,10.89
2017-10-28T01:49:59.540Z,10.92
2017-10-28T01:50:00.141Z,10.92
2017-10-28T01:50:00.742Z,10.91
2017-10-28T01:50:01.341Z,10.91
2017-10-28T01:50:01.940Z,10.88
2017-10-28T01:50:02.539Z,10.92
2017-10-28T01:50:57.041Z,10.89
2017-10-28T01:50:57.615Z,10.88
2017-10-28T01:50:58.214Z,10.95
2017-10-28T01:50:58.814Z,10.92
2017-10-28T01:50:59.414Z,10.86
2017-10-28T01:51:00.019Z,10.89
2017-10-28T01:51:00.615Z,10.95
2017-10-28T01:51:01.215Z,10.89
2017-10-28T01:51:55.716Z,10.91
2017-10-28T01:51:56.292Z,10.89
2017-10-28T01:51:56.889Z,10.91
2017-10-28T01:51:57.490Z,10.92
2017-10-28T01:51:58.091Z,10.94
2017-10-28T01:51:58.691Z,10.96
2017-10-28T01:51:59.289Z,10.95
2017-10-28T01:51:59.890Z,10.98
2017-10-28T01:52:54.393Z,10.86
2017-10-28T01:52:54.966Z,10.92
2017-10-28T01:52:55.567Z,10.94
2017-10-28T01:52:56.165Z,10.95
2017-10-28T01:52:56.765Z,10.95
2017-10-28T01:52:57.365Z,10.86
2017-10-28T01:52:57.965Z,10.88
2017-10-28T01:52:58.565Z,10.88
2017-10-28T01:53:53.068Z,10.88
2017-10-28T01:53:53.640Z,10.83
2017-10-28T01:53:54.241Z,10.91
2017-10-28T01:53:54.840Z,10.83
2017-10-28T01:53:55.442Z,10.86
2017-10-28T01:53:56.041Z,10.91
2017-10-28T01:53:56.640Z,10.86
2017-10-28T01:53:57.241Z,10.84
2017-10-28T01:54:50.718Z,10.86
2017-10-28T01:54:51.293Z,10.89
2017-10-28T01:54:51.899Z,10.81
2017-10-28T01:54:52.494Z,10.91
2017-10-28T01:54:53.094Z,10.86
2017-10-28T01:54:53.693Z,10.88
2017-10-28T01:54:54.294Z,10.92
2017-10-28T01:54:54.893Z,10.92
2017-10-28T01:55:49.397Z,10.92
2017-10-28T01:55:49.970Z,10.88
2017-10-28T01:55:50.570Z,10.94
2017-10-28T01:55:51.169Z,10.89
2017-10-28T01:55:51.773Z,10.89
2017-10-28T01:55:52.370Z,10.91
2017-10-28T01:55:52.969Z,10.81
2017-10-28T01:55:53.568Z,10.89
2017-10-28T01:56:48.071Z,10.92
2017-10-28T01:56:48.645Z,10.98
2017-10-28T01:56:49.243Z,10.94
2017-10-28T01:56:49.844Z,10.99
2017-10-28T01:56:50.445Z,10.94
2017-10-28T01:56:51.044Z,10.94
2017-10-28T01:56:51.644Z,10.88
2017-10-28T01:56:52.243Z,10.94
2017-10-28T01:57:46.746Z,10.91
2017-10-28T01:57:47.320Z,10.89
2017-10-28T01:57:47.920Z,11.06
2017-10-28T01:57:48.520Z,11.01
2017-10-28T01:57:49.120Z,10.84
2017-10-28T01:57:49.720Z,10.92
2017-10-28T01:57:50.321Z,10.91
2017-10-28T01:57:50.918Z,11.02
2017-10-28T01:58:45.422Z,10.89
2017-10-28T01:58:45.998Z,10.99
2017-10-28T01:58:46.595Z,11.03
2017-10-28T01:58:47.196Z,11.03
2017-10-28T01:58:47.795Z,11.02
2017-10-28T01:58:48.395Z,10.99
2017-10-28T01:58:48.994Z,10.99
2017-10-28T01:58:49.595Z,10.99
2017-10-28T01:59:44.098Z,10.99
2017-10-28T01:59:44.673Z,11.03
2017-10-28T01:59:45.272Z,11.09
2017-10-28T01:59:45.882Z,11.06
2017-10-28T01:59:46.471Z,11.06
2017-10-28T01:59:47.072Z,11.03
2017-10-28T01:59:47.673Z,11.02
2017-10-28T01:59:48.271Z,11.10
2017-10-28T02:00:42.773Z,11.03
2017-10-28T02:00:43.347Z,11.11
2017-10-28T02:00:43.947Z,11.09
2017-10-28T02:00:44.548Z,11.13
2017-10-28T02:00:45.147Z,11.11
2017-10-28T02:00:45.747Z,11.10
2017-10-28T02:00:46.346Z,11.07
2017-10-28T02:00:46.946Z,11.13
2017-10-28T02:01:40.426Z,11.11
2017-10-28T02:01:40.999Z,11.11
2017-10-28T02:01:41.601Z,11.09
2017-10-28T02:01:42.200Z,11.13
2017-10-28T02:01:42.803Z,11.13
2017-10-28T02:01:43.399Z,11.13
2017-10-28T02:01:44.001Z,11.09
2017-10-28T02:01:44.600Z,11.14
2017-10-28T02:02:38.077Z,11.13
2017-10-28T02:02:38.652Z,11.16
2017-10-28T02:02:39.251Z,11.10
2017-10-28T02:02:39.851Z,11.17
2017-10-28T02:02:40.451Z,11.14
2017-10-28T02:02:41.054Z,11.16
2017-10-28T02:02:41.651Z,11.17
2017-10-28T02:02:42.250Z,11.14
2017-10-28T02:03:35.728Z,11.10
2017-10-28T02:03:36.303Z,11.13
2017-10-28T02:03:36.903Z,11.14
2017-10-28T02:03:37.503Z,11.17
2017-10-28T02:03:38.102Z,11.14
2017-10-28T02:03:38.702Z,11.17
2017-10-28T02:03:39.300Z,11.21
2017-10-28T02:03:39.901Z,11.14
2017-10-28T02:04:33.380Z,11.09
2017-10-28T02:04:33.955Z,11.17
2017-10-28T02:04:34.555Z,11.17
2017-10-28T02:04:35.154Z,11.17
2017-10-28T02:04:35.755Z,11.17
2017-10-28T02:04:36.353Z,11.17
2017-10-28T02:04:36.954Z,11.17
2017-10-28T02:04:37.553Z,11.16
2017-10-28T02:05:31.032Z,11.29
2017-10-28T02:05:31.606Z,11.14
2017-10-28T02:05:32.206Z,11.16
2017-10-28T02:05:32.807Z,11.16
2017-10-28T02:05:33.406Z,11.24
2017-10-28T02:05:34.006Z,11.20
2017-10-28T02:05:34.607Z,11.21
2017-10-28T02:05:35.207Z,11.25
2017-10-28T02:06:28.684Z,11.25
2017-10-28T02:06:29.258Z,11.19
2017-10-28T02:06:29.859Z,11.29
2017-10-28T02:06:30.457Z,11.27
2017-10-28T02:06:31.058Z,11.25
2017-10-28T02:06:31.658Z,11.24
2017-10-28T02:06:32.258Z,11.24
2017-10-28T02:06:32.858Z,11.21
2017-10-28T02:07:27.361Z,11.27
2017-10-28T02:07:27.933Z,11.25
2017-10-28T02:07:28.534Z,11.16
2017-10-28T02:07:29.134Z,11.20
2017-10-28T02:07:29.734Z,11.29
2017-10-28T02:07:30.332Z,11.21
2017-10-28T02:07:30.933Z,11.17
2017-10-28T02:07:31.534Z,11.16
2017-10-28T02:08:26.035Z,11.27
2017-10-28T02:08:26.609Z,11.32
2017-10-28T02:08:27.209Z,11.21
2017-10-28T02:08:27.809Z,11.28
2017-10-28T02:08:28.409Z,11.25
2017-10-28T02:08:29.008Z,11.24
2017-10-28T02:08:29.608Z,11.28
2017-10-28T02:08:30.208Z,11.25
2017-10-28T02:09:23.687Z,11.25
2017-10-28T02:09:24.261Z,11.31
2017-10-28T02:09:24.862Z,11.20
2017-10-28T02:09:25.460Z,11.28
2017-10-28T02:09:26.065Z,11.31
2017-10-28T02:09:26.663Z,11.24
2017-10-28T02:09:27.260Z,11.24
2017-10-28T02:09:27.860Z,11.32
2017-10-28T02:10:21.340Z,11.25
2017-10-28T02:10:21.913Z,11.21
2017-10-28T02:10:22.513Z,11.27
2017-10-28T02:10:23.113Z,11.31
2017-10-28T02:10:23.712Z,11.28
2017-10-28T02:10:24.311Z,11.27
2017-10-28T02:10:24.912Z,11.31
2017-10-28T02:10:25.512Z,11.25
2017-10-28T02:11:20.016Z,11.28
2017-10-28T02:11:20.588Z,11.27
2017-10-28T02:11:21.187Z,11.27
2017-10-28T02:11:21.788Z,11.31
2017-10-28T02:11:22.392Z,11.29
2017-10-28T02:11:22.989Z,11.28
2017-10-28T02:11:23.590Z,11.34
2017-10-28T02:11:24.188Z,11.31
2017-10-28T02:12:17.665Z,11.21
2017-10-28T02:12:18.240Z,11.25
2017-10-28T02:12:18.839Z,11.29
2017-10-28T02:12:19.438Z,11.27
2017-10-28T02:12:20.041Z,11.27
2017-10-28T02:12:20.639Z,11.29
2017-10-28T02:12:21.239Z,11.27
2017-10-28T02:12:21.844Z,11.21
2017-10-28T02:13:16.343Z,11.27
2017-10-28T02:13:16.915Z,11.27
2017-10-28T02:13:17.515Z,11.31
2017-10-28T02:13:18.114Z,11.39
2017-10-28T02:13:18.715Z,11.19
2017-10-28T02:13:19.314Z,11.28
2017-10-28T02:13:19.914Z,11.28
2017-10-28T02:13:20.514Z,11.21
2017-10-28T02:14:15.017Z,11.21
2017-10-28T02:14:15.591Z,11.21
2017-10-28T02:14:16.191Z,11.34
2017-10-28T02:14:16.791Z,11.21
2017-10-28T02:14:17.391Z,11.21
2017-10-28T02:14:17.990Z,11.32
2017-10-28T02:14:18.590Z,11.31
2017-10-28T02:14:19.190Z,11.29
2017-10-28T02:15:13.693Z,11.31
2017-10-28T02:15:14.266Z,11.38
2017-10-28T02:15:14.866Z,11.27
2017-10-28T02:15:15.471Z,11.32
2017-10-28T02:15:16.066Z,11.36
2017-10-28T02:15:16.666Z,11.29
2017-10-28T02:15:17.268Z,11.27
2017-10-28T02:15:17.867Z,11.27
2017-10-28T02:16:11.344Z,11.31
2017-10-28T02:16:11.919Z,11.31
2017-10-28T02:16:12.518Z,11.41
2017-10-28T02:16:13.119Z,11.44
2017-10-28T02:16:13.718Z,11.28
2017-10-28T02:16:14.318Z,11.29
2017-10-28T02:16:14.918Z,11.27
2017-10-28T02:16:15.517Z,11.24
2017-10-28T02:17:08.995Z,11.21
2017-10-28T02:17:09.571Z,11.24
2017-10-28T02:17:10.172Z,11.38
2017-10-28T02:17:10.771Z,11.27
2017-10-28T02:17:11.370Z,11.29
2017-10-28T02:17:11.975Z,11.27
2017-10-28T02:17:12.570Z,11.41
2017-10-28T02:17:13.170Z,11.29
2017-10-28T02:18:07.674Z,11.31
2017-10-28T02:18:08.245Z,11.32
2017-10-28T02:18:08.846Z,11.29
2017-10-28T02:18:09.445Z,11.29
2017-10-28T02:18:10.045Z,11.29
2017-10-28T02:18:10.648Z,11.32
2017-10-28T02:18:11.243Z,11.36
2017-10-28T02:18:11.843Z,11.29
2017-10-28T02:19:06.348Z,11.25
2017-10-28T02:19:06.922Z,11.35
2017-10-28T02:19:07.521Z,11.38
2017-10-28T02:19:08.126Z,11.38
2017-10-28T02:19:08.722Z,11.32
2017-10-28T02:19:09.322Z,11.29
2017-10-28T02:19:09.921Z,11.21
2017-10-28T02:19:10.520Z,11.44
2017-10-28T02:20:05.023Z,11.31
2017-10-28T02:20:05.595Z,11.31
2017-10-28T02:20:06.197Z,11.31
2017-10-28T02:20:06.797Z,11.25
2017-10-28T02:20:07.396Z,11.29
2017-10-28T02:20:07.995Z,11.35
2017-10-28T02:20:08.596Z,11.31
2017-10-28T02:20:09.195Z,11.39
2017-10-28T02:21:02.675Z,11.21
2017-10-28T02:21:03.253Z,11.39
2017-10-28T02:21:03.849Z,11.39
2017-10-28T02:21:04.448Z,11.28
2017-10-28T02:21:05.047Z,11.29
2017-10-28T02:21:05.648Z,11.28
2017-10-28T02:21:06.248Z,11.27
2017-10-28T02:21:06.848Z,11.38
2017-10-28T02:22:00.327Z,11.31
2017-10-28T02:22:00.905Z,11.34
2017-10-28T02:22:01.501Z,11.41
2017-10-28T02:22:02.101Z,11.32
2017-10-28T02:22:02.700Z,11.38
2017-10-28T02:22:03.301Z,11.28
2017-10-28T02:22:03.899Z,11.32
2017-10-28T02:22:04.499Z,11.34
2017-10-28T02:22:59.003Z,11.38
2017-10-28T02:22:59.585Z,11.31
2017-10-28T02:23:00.176Z,11.39
2017-10-28T02:23:00.776Z,11.38
2017-10-28T02:23:01.376Z,11.36
2017-10-28T02:23:01.975Z,11.43
2017-10-28T02:23:02.585Z,11.35
2017-10-28T02:23:03.175Z,11.35
2017-10-28T02:23:56.653Z,11.29
2017-10-28T02:23:57.227Z,11.29
2017-10-28T02:23:57.828Z,11.25
2017-10-28T02:23:58.428Z,11.32
2017-10-28T02:23:59.028Z,11.31
2017-10-28T02:23:59.627Z,11.32
2017-10-28T02:24:00.227Z,11.38
2017-10-28T02:24:00.828Z,11.32
2017-10-28T02:24:55.330Z,11.32
2017-10-28T02:24:55.904Z,11.35
2017-10-28T02:24:56.503Z,11.35
2017-10-28T02:24:57.103Z,11.36
2017-10-28T02:24:57.703Z,11.31
2017-10-28T02:24:58.303Z,11.29
2017-10-28T02:24:58.906Z,11.41
2017-10-28T02:24:59.502Z,11.29
2017-10-28T02:25:54.005Z,11.35
2017-10-28T02:25:54.579Z,11.34
2017-10-28T02:25:55.178Z,11.38
2017-10-28T02:25:55.778Z,11.36
2017-10-28T02:25:56.378Z,11.38
2017-10-28T02:25:56.978Z,11.36
2017-10-28T02:25:57.577Z,11.29
2017-10-28T02:25:58.177Z,11.38
2017-10-28T02:26:52.682Z,11.34
2017-10-28T02:26:53.254Z,11.32
2017-10-28T02:26:53.854Z,11.38
2017-10-28T02:26:54.454Z,11.36
2017-10-28T02:26:55.053Z,11.34
2017-10-28T02:26:55.655Z,11.34
2017-10-28T02:26:56.265Z,11.29
2017-10-28T02:26:56.853Z,11.31
2017-10-28T02:27:51.357Z,11.38
2017-10-28T02:27:51.928Z,11.32
2017-10-28T02:27:52.530Z,11.36
2017-10-28T02:27:53.129Z,11.34
2017-10-28T02:27:53.730Z,11.35
2017-10-28T02:27:54.329Z,11.32
2017-10-28T02:27:54.930Z,11.36
2017-10-28T02:27:55.531Z,11.41
2017-10-28T02:28:50.032Z,11.29
2017-10-28T02:28:50.606Z,11.31
2017-10-28T02:28:51.205Z,11.35
2017-10-28T02:28:51.805Z,11.38
2017-10-28T02:28:52.408Z,11.38
2017-10-28T02:28:53.006Z,11.43
2017-10-28T02:28:53.605Z,11.43
2017-10-28T02:28:54.204Z,11.36
2017-10-28T02:29:47.684Z,11.34
2017-10-28T02:29:48.258Z,11.32
2017-10-28T02:29:48.858Z,11.36
2017-10-28T02:29:49.458Z,11.36
2017-10-28T02:29:50.058Z,11.32
2017-10-28T02:29:50.657Z,11.35
2017-10-28T02:29:51.259Z,11.36
2017-10-28T02:29:51.859Z,11.28
2017-10-28T02:30:45.336Z,11.28
2017-10-28T02:30:45.910Z,11.38
2017-10-28T02:30:46.510Z,11.35
2017-10-28T02:30:47.129Z,11.29
2017-10-28T02:30:47.708Z,11.35
2017-10-28T02:30:48.312Z,11.32
2017-10-28T02:30:48.909Z,11.31
2017-10-28T02:30:49.509Z,11.41
2017-10-28T02:31:42.986Z,11.32
2017-10-28T02:31:43.560Z,11.35
2017-10-28T02:31:44.161Z,11.44
2017-10-28T02:31:44.766Z,11.29
2017-10-28T02:31:45.360Z,11.32
2017-10-28T02:31:45.964Z,11.29
2017-10-28T02:31:46.561Z,11.32
2017-10-28T02:31:47.160Z,11.41
2017-10-28T02:32:41.663Z,11.31
2017-10-28T02:32:42.236Z,11.29
2017-10-28T02:32:42.835Z,11.41
2017-10-28T02:32:43.436Z,11.32
2017-10-28T02:32:44.035Z,11.41
2017-10-28T02:32:44.635Z,11.28
2017-10-28T02:32:45.236Z,11.31
2017-10-28T02:32:45.836Z,11.35
2017-10-28T02:50:41.065Z,11.25
2017-10-28T02:50:41.643Z,11.24
2017-10-28T02:50:42.240Z,11.24
2017-10-28T02:50:42.840Z,11.21
2017-10-28T02:50:43.441Z,11.20
2017-10-28T02:50:44.039Z,11.19
2017-10-28T02:50:44.639Z,11.25
2017-10-28T02:50:45.241Z,11.21
2017-10-28T02:51:39.740Z,11.14
2017-10-28T02:51:40.313Z,11.25
2017-10-28T02:51:40.914Z,11.28
2017-10-28T02:51:41.514Z,11.20
2017-10-28T02:51:42.114Z,11.25
2017-10-28T02:51:42.713Z,11.25
2017-10-28T02:51:43.314Z,11.17
2017-10-28T02:51:43.913Z,11.25
2017-10-28T02:52:38.416Z,11.16
2017-10-28T02:52:38.994Z,11.24
2017-10-28T02:52:39.590Z,11.17
2017-10-28T02:52:40.190Z,11.16
2017-10-28T02:52:40.790Z,11.17
2017-10-28T02:52:41.395Z,11.20
2017-10-28T02:52:41.990Z,11.24
2017-10-28T02:52:42.589Z,11.24
2017-10-28T02:53:37.100Z,11.17
2017-10-28T02:53:37.666Z,11.16
2017-10-28T02:53:38.267Z,11.11
2017-10-28T02:53:38.869Z,11.20
2017-10-28T02:53:39.466Z,11.27
2017-10-28T02:53:40.066Z,11.16
2017-10-28T02:53:40.673Z,11.21
2017-10-28T02:53:41.266Z,11.14
2017-10-28T02:54:34.744Z,11.16
2017-10-28T02:54:35.320Z,11.14
2017-10-28T02:54:35.920Z,11.11
2017-10-28T02:54:36.519Z,11.11
2017-10-28T02:54:37.124Z,11.17
2017-10-28T02:54:37.719Z,11.25
2017-10-28T02:54:38.319Z,11.16
2017-10-28T02:54:38.918Z,11.21
2017-10-28T02:55:32.396Z,11.11
2017-10-28T02:55:32.972Z,11.16
2017-10-28T02:55:33.571Z,11.14
2017-10-28T02:55:34.172Z,11.16
2017-10-28T02:55:34.771Z,11.16
2017-10-28T02:55:35.370Z,11.10
2017-10-28T02:55:35.972Z,11.17
2017-10-28T02:55:36.574Z,11.07
2017-10-28T02:56:30.050Z,11.06
2017-10-28T02:56:30.624Z,11.13
2017-10-28T02:56:31.224Z,11.11
2017-10-28T02:56:31.824Z,11.14
2017-10-28T02:56:32.425Z,11.19
2017-10-28T02:56:33.034Z,11.11
2017-10-28T02:56:33.625Z,11.13
2017-10-28T02:56:34.225Z,11.16
2017-10-28T02:57:28.725Z,11.11
2017-10-28T02:57:29.299Z,11.10
2017-10-28T02:57:29.899Z,11.07
2017-10-28T02:57:30.497Z,11.16
2017-10-28T02:57:31.098Z,11.10
2017-10-28T02:57:31.699Z,11.10
2017-10-28T02:57:32.299Z,11.20
2017-10-28T02:57:32.898Z,11.16
2017-10-28T02:58:26.379Z,11.11
2017-10-28T02:58:26.951Z,11.11
2017-10-28T02:58:27.554Z,11.13
2017-10-28T02:58:28.151Z,11.17
2017-10-28T02:58:28.765Z,11.14
2017-10-28T02:58:29.351Z,11.16
2017-10-28T02:58:29.950Z,11.13
2017-10-28T02:58:30.550Z,11.14
2017-10-28T02:59:24.030Z,11.10
2017-10-28T02:59:24.603Z,11.11
2017-10-28T02:59:25.204Z,11.11
2017-10-28T02:59:25.809Z,11.07
2017-10-28T02:59:26.403Z,11.13
2017-10-28T02:59:27.009Z,11.13
2017-10-28T02:59:27.603Z,11.13
2017-10-28T02:59:28.203Z,11.11
2017-10-28T03:00:22.705Z,11.11
2017-10-28T03:00:23.278Z,11.17
2017-10-28T03:00:23.879Z,11.07
2017-10-28T03:00:24.483Z,11.14
2017-10-28T03:00:25.083Z,11.20
2017-10-28T03:00:25.679Z,11.09
2017-10-28T03:00:26.277Z,11.14
2017-10-28T03:00:26.876Z,11.09
2017-10-28T03:01:20.356Z,11.13
2017-10-28T03:01:20.932Z,11.14
2017-10-28T03:01:21.531Z,11.11
2017-10-28T03:01:22.132Z,11.17
2017-10-28T03:01:22.732Z,11.17
2017-10-28T03:01:23.330Z,11.25
2017-10-28T03:01:23.930Z,11.19
2017-10-28T03:01:24.530Z,11.16
2017-10-28T03:02:18.008Z,11.11
2017-10-28T03:02:18.588Z,11.24
2017-10-28T03:02:19.183Z,11.14
2017-10-28T03:02:19.782Z,11.21
2017-10-28T03:02:20.381Z,11.17
2017-10-28T03:02:20.982Z,11.17
2017-10-28T03:02:21.583Z,11.16
2017-10-28T03:02:22.183Z,11.20
2017-10-28T03:03:15.660Z,11.14
2017-10-28T03:03:16.235Z,11.16
2017-10-28T03:03:16.835Z,11.19
2017-10-28T03:03:17.435Z,11.16
2017-10-28T03:03:18.035Z,11.19
2017-10-28T03:03:18.635Z,11.20
2017-10-28T03:03:19.235Z,11.19
2017-10-28T03:03:19.833Z,11.17
2017-10-28T03:04:14.336Z,11.16
2017-10-28T03:04:14.910Z,11.20
2017-10-28T03:04:15.509Z,11.19
2017-10-28T03:04:16.109Z,11.20
2017-10-28T03:04:16.711Z,11.21
2017-10-28T03:04:17.309Z,11.17
2017-10-28T03:04:17.909Z,11.21
2017-10-28T03:04:18.508Z,11.19
2017-10-28T03:05:11.994Z,11.17
2017-10-28T03:05:12.561Z,11.20
2017-10-28T03:05:13.162Z,11.27
2017-10-28T03:05:13.762Z,11.25
2017-10-28T03:05:14.361Z,11.25
2017-10-28T03:05:14.962Z,11.21
2017-10-28T03:05:15.562Z,11.24
2017-10-28T03:05:16.161Z,11.24
2017-10-28T03:06:10.664Z,11.16
2017-10-28T03:06:11.237Z,11.16
2017-10-28T03:06:11.837Z,11.25
2017-10-28T03:06:12.436Z,11.21
2017-10-28T03:06:13.035Z,11.14
2017-10-28T03:06:13.636Z,11.24
2017-10-28T03:06:14.235Z,11.19
2017-10-28T03:06:14.840Z,11.21
2017-10-28T03:07:08.314Z,11.19
2017-10-28T03:07:08.889Z,11.21
2017-10-28T03:07:09.489Z,11.27
2017-10-28T03:07:10.090Z,11.27
2017-10-28T03:07:10.689Z,11.25
2017-10-28T03:07:11.288Z,11.25
2017-10-28T03:07:11.889Z,11.25
2017-10-28T03:07:12.488Z,11.25
2017-10-28T03:08:06.991Z,11.21
2017-10-28T03:08:07.564Z,11.25
2017-10-28T03:08:08.163Z,11.28
2017-10-28T03:08:08.764Z,11.27
2017-10-28T03:08:09.363Z,11.28
2017-10-28T03:08:09.963Z,11.25
2017-10-28T03:08:10.563Z,11.31
2017-10-28T03:08:11.162Z,11.17
2017-10-28T03:09:05.666Z,11.20
2017-10-28T03:09:06.244Z,11.25
2017-10-28T03:09:06.839Z,11.28
2017-10-28T03:09:07.441Z,11.19
2017-10-28T03:09:08.040Z,11.32
2017-10-28T03:09:08.639Z,11.24
2017-10-28T03:09:09.238Z,11.25
2017-10-28T03:09:09.838Z,11.27
2017-10-28T03:10:04.342Z,11.28
2017-10-28T03:10:04.915Z,11.29
2017-10-28T03:10:05.515Z,11.28
2017-10-28T03:10:06.115Z,11.28
2017-10-28T03:10:06.714Z,11.31
2017-10-28T03:10:07.315Z,11.27
2017-10-28T03:10:07.914Z,11.21
2017-10-28T03:10:08.514Z,11.28
2017-10-28T03:11:03.017Z,11.24
2017-10-28T03:11:03.592Z,11.31
2017-10-28T03:11:04.190Z,11.24
2017-10-28T03:11:04.791Z,11.27
2017-10-28T03:11:05.392Z,11.29
2017-10-28T03:11:05.991Z,11.25
2017-10-28T03:11:06.591Z,11.27
2017-10-28T03:11:07.190Z,11.29
2017-10-28T03:12:01.694Z,11.28
2017-10-28T03:12:02.266Z,11.24
2017-10-28T03:12:02.867Z,11.31
2017-10-28T03:12:03.466Z,11.20
2017-10-28T03:12:04.065Z,11.27
2017-10-28T03:12:04.666Z,11.27
2017-10-28T03:12:05.266Z,11.27
2017-10-28T03:12:05.865Z,11.21
2017-10-28T03:12:59.346Z,11.25
2017-10-28T03:12:59.919Z,11.27
2017-10-28T03:13:00.519Z,11.28
2017-10-28T03:13:01.119Z,11.34
2017-10-28T03:13:01.720Z,11.21
2017-10-28T03:13:02.320Z,11.25
2017-10-28T03:13:02.919Z,11.27
2017-10-28T03:13:03.519Z,11.21
2017-10-28T03:13:56.996Z,11.27
2017-10-28T03:13:57.571Z,11.24
2017-10-28T03:13:58.169Z,11.21
2017-10-28T03:13:58.773Z,11.21
2017-10-28T03:13:59.370Z,11.25
2017-10-28T03:13:59.970Z,11.35
2017-10-28T03:14:00.570Z,11.32
2017-10-28T03:14:01.172Z,11.27
2017-10-28T03:14:55.678Z,11.31
2017-10-28T03:14:56.246Z,11.39
2017-10-28T03:14:56.848Z,11.29
2017-10-28T03:14:57.446Z,11.28
2017-10-28T03:14:58.046Z,11.25
2017-10-28T03:14:58.646Z,11.29
2017-10-28T03:14:59.263Z,11.29
2017-10-28T03:14:59.845Z,11.27
2017-10-28T03:15:53.324Z,11.28
2017-10-28T03:15:53.899Z,11.29
2017-10-28T03:15:54.497Z,11.34
2017-10-28T03:15:55.096Z,11.31
2017-10-28T03:15:55.697Z,11.21
2017-10-28T03:15:56.298Z,11.31
2017-10-28T03:15:56.898Z,11.35
2017-10-28T03:15:57.497Z,11.32
2017-10-28T03:16:50.975Z,11.27
2017-10-28T03:16:51.550Z,11.29
2017-10-28T03:16:52.152Z,11.24
2017-10-28T03:16:52.756Z,11.29
2017-10-28T03:16:53.364Z,11.34
2017-10-28T03:16:53.952Z,11.29
2017-10-28T03:16:54.549Z,11.32
2017-10-28T03:16:55.149Z,11.29
2017-10-28T03:17:48.632Z,11.29
2017-10-28T03:17:49.202Z,11.27
2017-10-28T03:17:49.801Z,11.31
2017-10-28T03:17:50.402Z,11.31
2017-10-28T03:17:51.006Z,11.31
2017-10-28T03:17:51.603Z,11.28
2017-10-28T03:17:52.205Z,11.35
2017-10-28T03:17:52.802Z,11.31
2017-10-28T03:18:47.306Z,11.29
2017-10-28T03:18:47.878Z,11.38
2017-10-28T03:18:48.476Z,11.28
2017-10-28T03:18:49.076Z,11.38
2017-10-28T03:18:49.676Z,11.28
2017-10-28T03:18:50.276Z,11.35
2017-10-28T03:18:50.876Z,11.27
2017-10-28T03:18:51.474Z,11.36
2017-10-28T03:19:45.978Z,11.32
2017-10-28T03:19:46.554Z,11.39
2017-10-28T03:19:47.153Z,11.36
2017-10-28T03:19:47.753Z,11.36
2017-10-28T03:19:48.352Z,11.32
2017-10-28T03:19:48.954Z,11.29
2017-10-28T03:19:49.551Z,11.31
2017-10-28T03:19:50.152Z,11.39
2017-10-28T03:20:44.655Z,11.36
2017-10-28T03:20:45.258Z,11.29
2017-10-28T03:20:45.826Z,11.39
2017-10-28T03:20:46.424Z,11.35
2017-10-28T03:20:47.026Z,11.39
2017-10-28T03:20:47.624Z,11.36
2017-10-28T03:20:48.225Z,11.38
2017-10-28T03:20:48.825Z,11.39
2017-10-28T03:21:43.329Z,11.31
2017-10-28T03:21:43.903Z,11.27
2017-10-28T03:21:44.503Z,11.29
2017-10-28T03:21:45.104Z,11.43
2017-10-28T03:21:45.704Z,11.38
2017-10-28T03:21:46.303Z,11.41
2017-10-28T03:21:46.903Z,11.29
2017-10-28T03:21:47.502Z,11.34
2017-10-28T03:22:42.005Z,11.38
2017-10-28T03:22:42.579Z,11.31
2017-10-28T03:22:43.178Z,11.32
2017-10-28T03:22:43.778Z,11.34
2017-10-28T03:22:44.380Z,11.38
2017-10-28T03:22:44.980Z,11.32
2017-10-28T03:22:45.579Z,11.32
2017-10-28T03:22:46.178Z,11.38
2017-10-28T03:23:39.657Z,11.31
2017-10-28T03:23:40.233Z,11.29
2017-10-28T03:23:40.832Z,11.38
2017-10-28T03:23:41.433Z,11.41
2017-10-28T03:23:42.032Z,11.31
2017-10-28T03:23:42.634Z,11.31
2017-10-28T03:23:43.230Z,11.36
2017-10-28T03:23:43.830Z,11.38
2017-10-28T03:24:37.308Z,11.38
2017-10-28T03:24:37.883Z,11.31
2017-10-28T03:24:38.483Z,11.32
2017-10-28T03:24:39.084Z,11.31
2017-10-28T03:24:39.683Z,11.32
2017-10-28T03:24:40.282Z,11.36
2017-10-28T03:24:40.887Z,11.34
2017-10-28T03:24:41.487Z,11.31
2017-10-28T03:25:34.960Z,11.34
2017-10-28T03:25:35.533Z,11.31
2017-10-28T03:25:36.136Z,11.36
2017-10-28T03:25:36.735Z,11.36
2017-10-28T03:25:37.334Z,11.35
2017-10-28T03:25:37.933Z,11.27
2017-10-28T03:25:38.534Z,11.29
2017-10-28T03:25:39.133Z,11.32
2017-10-28T03:26:33.637Z,11.38
2017-10-28T03:26:34.210Z,11.35
2017-10-28T03:26:34.834Z,11.32
2017-10-28T03:26:35.409Z,11.41
2017-10-28T03:26:36.008Z,11.32